Maple Lake, MN

12:02 AM CDT on April 29, 2017 (GMT -0500)
Maple Lake Municipal

Weather History for KMGG - March, 2013

Change the Weather History Date:

Sunday, March 10, 2013

  Actual Average (KSTC) Record (KSTC)
Temperature  
Mean Temperature 30 °F -  
Max Temperature 33 °F 35 °F 61 °F (2015)
Min Temperature 26 °F 14 °F -24 °F (1948)
Degree Days  
Heating Degree Days 36    
Moisture  
Dew Point 26 °F    
Average Humidity 85    
Maximum Humidity 96    
Minimum Humidity 78    
Precipitation  
Precipitation 0.00 in - - ()
Sea Level Pressure  
Sea Level Pressure 29.92 in    
Wind  
Wind Speed 15 mph (North)    
Max Wind Speed 22 mph    
Max Gust Speed 28 mph    
Visibility 9 miles    
Events      
Averages and records for this station are not official NWS values.
T = Trace of Precipitation, MM = Missing Value Source: NWS Daily Summary

Daily Weather History Graph

Daily Weather History Graph

Search for Another Location

Airport or City:

Trip Planner

Search our weather history database for the weather conditions in past years. The results will help you decide how hot, cold, wet, or windy it might be!

Date:

Astronomy

Mar. 10, 2013 Rise Set
Actual Time 7:37 AM CDT 7:15 PM CDT
Civil Twilight 7:07 AM CDT 7:45 PM CDT
Nautical Twilight 6:33 AM CDT 8:19 PM CDT
Astronomical Twilight 5:59 AM CDT 8:54 PM CDT
Moon 6:39 AM CDT (3/10) 6:23 PM CDT (3/10)
Length of Visible Light 12h 37m
Length of Day
11h 38m
Waning Crescent, 2% of the Moon is Illuminated
Mar 10
Waning Crescent
Mar 11
New
Mar 19
First Quarter
Mar 27
Full
Apr 2
Last Quarter

Hourly Weather History & Observations

Time (CDT) Temp. Windchill Dew Point Humidity Pressure Visibility Wind Dir Wind Speed Gust Speed Precip Events Conditions
12:15 AM 33.3 °F 24.6 °F 32.4 °F 96% 29.82 in 10.0 mi NNW 11.5 mph - N/A   Overcast
12:36 AM 33.3 °F 24.1 °F 32.2 °F 96% 29.82 in 10.0 mi NNW 12.7 mph - N/A   Overcast
12:55 AM 33.3 °F 24.1 °F 32.0 °F 95% 29.81 in 10.0 mi North 12.7 mph 17.3 mph N/A   Overcast
1:15 AM 33.3 °F 24.6 °F 32.0 °F 95% 29.82 in 10.0 mi North 11.5 mph - N/A   Overcast
1:36 AM 33.4 °F 23.9 °F 31.8 °F 94% 29.83 in 10.0 mi NNW 13.8 mph 18.4 mph N/A   Overcast
1:56 AM 33.3 °F 23.7 °F 31.6 °F 94% 29.82 in 10.0 mi North 13.8 mph - N/A   Overcast
3:15 AM 33.3 °F 24.1 °F 31.6 °F 94% 29.83 in 10.0 mi NNW 12.7 mph 18.4 mph N/A   Overcast
3:35 AM 33.3 °F 23.7 °F 31.6 °F 94% 29.84 in 10.0 mi NNW 13.8 mph 18.4 mph N/A   Overcast
3:56 AM 32.9 °F 22.0 °F 31.5 °F 94% 29.84 in 7.0 mi NNW 17.3 mph 21.9 mph N/A   Overcast
4:15 AM 32.9 °F 22.4 °F 30.7 °F 92% 29.84 in 7.0 mi North 16.1 mph 24.2 mph N/A   Overcast
4:36 AM 32.9 °F 22.4 °F 30.2 °F 90% 29.84 in 10.0 mi NNW 16.1 mph 20.7 mph N/A   Overcast
4:56 AM 32.7 °F 23.0 °F 30.6 °F 92% 29.83 in 7.0 mi North 13.8 mph 19.6 mph N/A   Overcast
5:16 AM 32.9 °F 22.8 °F 30.6 °F 91% 29.85 in 7.0 mi North 15.0 mph 21.9 mph N/A   Overcast
5:35 AM 32.9 °F 21.0 °F 30.0 °F 89% 29.84 in 10.0 mi North 20.7 mph 25.3 mph N/A   Overcast
5:55 AM 32.9 °F 23.2 °F 30.0 °F 89% 29.86 in 10.0 mi North 13.8 mph 23.0 mph N/A   Overcast
6:16 AM 32.9 °F 23.7 °F 30.0 °F 89% 29.87 in 10.0 mi North 12.7 mph 20.7 mph N/A   Overcast
7:36 AM 32.5 °F 22.7 °F 30.4 °F 92% 29.90 in 10.0 mi North 13.8 mph - N/A   Overcast
7:55 AM 32.4 °F 22.1 °F 29.8 °F 90% 29.91 in 10.0 mi North 15.0 mph 19.6 mph N/A   Overcast
8:15 AM 32.0 °F 21.6 °F 29.8 °F 92% 29.90 in 7.0 mi NNW 15.0 mph 21.9 mph N/A   Overcast
8:35 AM 31.8 °F 20.2 °F 29.3 °F 90% 29.94 in 5.0 mi NNW 18.4 mph 23.0 mph N/A   Overcast
8:56 AM 31.3 °F 18.5 °F 28.4 °F 89% 29.97 in 5.0 mi NNW 21.9 mph - N/A   Overcast
9:15 AM 30.9 °F 21.2 °F 28.0 °F 89% 29.97 in 5.0 mi NNW 12.7 mph 20.7 mph N/A   Overcast
9:36 AM 30.4 °F 19.5 °F 27.5 °F 89% 29.97 in 5.0 mi North 15.0 mph - N/A   Overcast
9:55 AM 30.2 °F 19.3 °F 27.1 °F 88% 29.95 in 5.0 mi North 15.0 mph 21.9 mph N/A   Overcast
10:16 AM 30.2 °F 19.8 °F 27.0 °F 88% 29.98 in 7.0 mi NNW 13.8 mph 25.3 mph N/A   Overcast
10:36 AM 30.0 °F 18.7 °F 26.6 °F 87% 29.97 in 5.0 mi North 16.1 mph 21.9 mph N/A   Overcast
10:55 AM 30.0 °F 18.7 °F 26.4 °F 86% 29.97 in 7.0 mi North 16.1 mph - N/A   Overcast
11:16 AM 30.2 °F 20.8 °F 26.4 °F 86% 29.99 in 7.0 mi North 11.5 mph - N/A   Overcast
11:35 AM 30.0 °F 18.7 °F 26.4 °F 86% 30.01 in 7.0 mi North 16.1 mph 20.7 mph N/A   Overcast
11:56 AM 30.2 °F 18.9 °F 26.2 °F 85% 29.99 in 7.0 mi North 16.1 mph 20.7 mph N/A   Overcast
12:15 PM 30.2 °F 19.8 °F 26.2 °F 85% 29.98 in 7.0 mi North 13.8 mph 24.2 mph N/A   Overcast
12:35 PM 30.2 °F 18.9 °F 26.1 °F 85% 30.00 in 7.0 mi NNW 16.1 mph - N/A   Overcast
12:56 PM 30.2 °F 19.3 °F 25.7 °F 83% 29.98 in 10.0 mi North 15.0 mph 23.0 mph N/A   Overcast
1:16 PM 30.2 °F 18.5 °F 25.9 °F 84% 29.99 in 10.0 mi North 17.3 mph 20.7 mph N/A   Overcast
1:35 PM 30.7 °F 20.0 °F 26.1 °F 83% 29.96 in 10.0 mi North 15.0 mph 19.6 mph N/A   Overcast
1:56 PM 31.1 °F 20.5 °F 25.7 °F 80% 29.95 in 10.0 mi North 15.0 mph 21.9 mph N/A   Overcast
2:16 PM 31.8 °F 20.2 °F 25.5 °F 78% 29.97 in 10.0 mi NNE 18.4 mph 21.9 mph N/A   Overcast
2:35 PM 31.5 °F 19.8 °F 25.2 °F 78% 29.97 in 10.0 mi North 18.4 mph 26.5 mph N/A   Overcast
2:56 PM 31.1 °F 19.7 °F 25.0 °F 78% 29.97 in 10.0 mi North 17.3 mph 24.2 mph N/A   Overcast
3:15 PM 30.9 °F 19.8 °F 24.8 °F 78% 29.97 in 10.0 mi North 16.1 mph 26.5 mph N/A   Overcast
3:36 PM 30.9 °F 19.1 °F 25.0 °F 79% 29.97 in 10.0 mi North 18.4 mph 21.9 mph N/A   Overcast
3:55 PM 30.9 °F 19.4 °F 25.0 °F 79% 29.96 in 10.0 mi North 17.3 mph 23.0 mph N/A   Overcast
4:16 PM 30.9 °F 18.7 °F 24.8 °F 78% 29.96 in 10.0 mi North 19.6 mph 25.3 mph N/A   Overcast
4:35 PM 30.4 °F 18.0 °F 24.6 °F 79% 29.95 in 10.0 mi North 19.6 mph 27.6 mph N/A   Overcast
4:55 PM 30.2 °F 18.1 °F 24.6 °F 80% 29.93 in 10.0 mi North 18.4 mph 27.6 mph N/A   Overcast
5:16 PM 30.0 °F 19.5 °F 24.4 °F 80% 29.94 in 10.0 mi North 13.8 mph 23.0 mph N/A   Overcast
5:35 PM 29.8 °F 17.3 °F 24.4 °F 80% 29.93 in 10.0 mi North 19.6 mph 25.3 mph N/A   Overcast
5:56 PM 29.7 °F 17.1 °F 23.9 °F 79% 29.94 in 10.0 mi North 19.6 mph 27.6 mph N/A   Overcast
6:16 PM 29.3 °F 17.0 °F 24.1 °F 81% 29.93 in 10.0 mi North 18.4 mph 24.2 mph N/A   Overcast
6:35 PM 29.3 °F 18.6 °F 23.9 °F 80% 29.93 in 10.0 mi North 13.8 mph 23.0 mph N/A   Overcast
6:56 PM 29.1 °F 17.9 °F 23.9 °F 81% 29.94 in 10.0 mi North 15.0 mph 23.0 mph N/A   Overcast
7:15 PM 28.9 °F 17.7 °F 23.9 °F 81% 29.95 in 10.0 mi North 15.0 mph 24.2 mph N/A   Overcast
7:35 PM 28.8 °F 17.5 °F 23.9 °F 82% 29.95 in 10.0 mi North 15.0 mph 19.6 mph N/A   Overcast
7:55 PM 28.8 °F 16.6 °F 23.4 °F 80% 29.95 in 10.0 mi North 17.3 mph 23.0 mph N/A   Overcast
8:16 PM 28.4 °F 17.0 °F 23.7 °F 83% 29.95 in 10.0 mi North 15.0 mph 23.0 mph N/A   Overcast
8:35 PM 28.2 °F 15.5 °F 23.0 °F 81% 29.95 in 10.0 mi North 18.4 mph 26.5 mph N/A   Overcast
8:55 PM 27.9 °F 16.3 °F 23.0 °F 82% 29.95 in 10.0 mi North 15.0 mph 24.2 mph N/A   Overcast
9:16 PM 27.9 °F 16.3 °F 22.6 °F 81% 29.95 in 10.0 mi North 15.0 mph 20.7 mph N/A   Overcast
9:35 PM 27.7 °F 18.2 °F 22.5 °F 81% 29.95 in 10.0 mi North 10.4 mph 21.9 mph N/A   Overcast
9:55 PM 27.5 °F 15.9 °F 22.5 °F 81% 29.95 in 10.0 mi North 15.0 mph 20.7 mph N/A   Overcast
10:16 PM 27.5 °F 14.6 °F 22.3 °F 81% 29.95 in 10.0 mi North 18.4 mph 21.9 mph N/A   Overcast
10:55 PM 27.5 °F 16.3 °F 22.1 °F 80% 29.94 in 10.0 mi North 13.8 mph - N/A   Overcast
11:16 PM 27.3 °F 16.6 °F 22.1 °F 81% 29.93 in 10.0 mi North 12.7 mph - N/A   Overcast
11:35 PM 27.3 °F 16.6 °F 22.5 °F 82% 29.93 in 10.0 mi North 12.7 mph 21.9 mph N/A   Overcast
11:55 PM 27.1 °F 14.5 °F 22.3 °F 82% 29.91 in 10.0 mi North 17.3 mph - N/A   Overcast
12:16 AM 27.0 °F 15.2 °F 22.1 °F 82% 29.90 in 10.0 mi North 15.0 mph - N/A   Overcast
12:35 AM 26.6 °F 15.7 °F 21.9 °F 82% 29.90 in 10.0 mi North 12.7 mph 20.7 mph N/A   Overcast
12:56 AM 26.6 °F 15.2 °F 21.9 °F 82% 29.89 in 10.0 mi North 13.8 mph 21.9 mph N/A   Overcast